Time;durP1;ratioP1;P1;durP2;ratioP2;P2;SDS_P1;SDS_P2;PMS_P1;PMS_P2;Temp;Humidity;BMP_temperature;BMP_pressure;BME280_temperature;BME280_humidity;BME280_pressure;Samples;Min_cycle;Max_cycle;Signal;HPM_P1;HPM_P2
2023/06/07 00:02:17;;;;;;;9.10;8.10;;;20.40;99.90;;;;;;6120757;23;20383;-81
2023/06/07 00:04:55;;;;;;;9.27;8.38;;;20.50;99.90;;;;;;6120274;23;20403;-80
2023/06/07 00:07:22;;;;;;;8.65;7.93;;;20.50;99.90;;;;;;6118379;23;20422;-80
2023/06/07 00:09:50;;;;;;;9.35;8.10;;;20.50;99.90;;;;;;6120101;23;20380;-80
2023/06/07 00:12:17;;;;;;;10.05;8.70;;;20.50;99.90;;;;;;6118812;23;20371;-80
2023/06/07 00:14:44;;;;;;;14.10;8.70;;;20.40;99.90;;;;;;6121172;23;20391;-82
2023/06/07 00:17:11;;;;;;;11.07;9.07;;;20.40;99.90;;;;;;6119197;23;20383;-80
2023/06/07 00:19:38;;;;;;;10.15;8.43;;;20.40;99.90;;;;;;6119978;23;20395;-81
2023/06/07 00:22:05;;;;;;;9.95;8.93;;;20.40;99.90;;;;;;6118667;23;20379;-81
2023/06/07 00:24:32;;;;;;;6.20;5.55;;;20.50;99.90;;;;;;6119665;23;20371;-80
2023/06/07 00:26:59;;;;;;;4.78;4.22;;;20.50;99.90;;;;;;6119689;23;20383;-80
2023/06/07 00:29:26;;;;;;;5.25;3.97;;;20.60;99.10;;;;;;6120388;23;20383;-80
2023/06/07 00:31:53;;;;;;;4.25;3.38;;;20.60;98.30;;;;;;6119925;23;20384;-79
2023/06/07 00:34:20;;;;;;;3.92;3.58;;;20.70;98.40;;;;;;6118342;23;20805;-80
2023/06/07 00:36:47;;;;;;;4.50;4.03;;;20.60;97.70;;;;;;6119635;23;20758;-80
2023/06/07 00:39:14;;;;;;;6.40;5.50;;;20.60;98.20;;;;;;6118958;23;20392;-80
2023/06/07 00:41:41;;;;;;;5.85;5.25;;;20.50;98.20;;;;;;6119629;23;20401;-81
2023/06/07 00:44:11;;;;;;;5.47;4.65;;;20.60;99.30;;;;;;6118650;23;20380;-79
2023/06/07 00:46:39;;;;;;;6.90;6.20;;;20.60;99.50;;;;;;6119833;23;20368;-80
2023/06/07 00:49:06;;;;;;;7.40;6.70;;;20.50;99.90;;;;;;6118763;23;20755;-80
2023/06/07 00:51:33;;;;;;;8.07;7.35;;;20.40;99.90;;;;;;6121314;23;20668;-80
2023/06/07 00:54:07;;;;;;;8.63;7.82;;;20.50;99.90;;;;;;6119172;23;20389;-81
2023/06/07 00:56:35;;;;;;;7.90;7.10;;;20.50;99.90;;;;;;6143672;23;20445;-80
2023/06/07 00:59:03;;;;;;;8.00;7.20;;;20.40;99.90;;;;;;6118956;23;20726;-80
2023/06/07 02:30:11;;;;;;;9.68;8.68;;;18.30;99.90;;;;;;6058017;23;20402;-79
2023/06/07 02:32:38;;;;;;;8.68;7.80;;;18.40;99.90;;;;;;6090498;23;20429;-79
2023/06/07 02:35:07;;;;;;;6.13;5.53;;;18.50;99.90;;;;;;6113355;23;20452;-79
2023/06/07 02:37:35;;;;;;;4.63;4.20;;;18.60;99.90;;;;;;6142182;23;20384;-79
2023/06/07 02:40:05;;;;;;;8.10;4.30;;;18.50;99.90;;;;;;6142805;23;20384;-81
2023/06/07 02:42:32;;;;;;;5.57;4.18;;;18.40;99.90;;;;;;6142640;23;20459;-81
2023/06/07 02:45:01;;;;;;;3.43;2.60;;;18.30;99.90;;;;;;6144190;23;20834;-81
2023/06/07 02:47:29;;;;;;;2.95;1.92;;;18.10;99.90;;;;;;6144188;23;20467;-80
2023/06/07 02:49:57;;;;;;;4.05;2.20;;;17.90;99.90;;;;;;6145184;23;20718;-80
2023/06/07 02:52:25;;;;;;;3.35;1.98;;;17.90;99.90;;;;;;6120682;23;20386;-80
2023/06/07 02:54:52;;;;;;;2.10;1.50;;;18.00;99.90;;;;;;6144873;23;20386;-80
2023/06/07 02:57:19;;;;;;;1.92;1.67;;;17.90;99.90;;;;;;6143616;23;20380;-79
2023/06/07 02:59:47;;;;;;;3.40;1.70;;;17.80;99.90;;;;;;6144446;23;20391;-80
2023/06/07 03:02:15;;;;;;;2.10;1.60;;;17.80;99.90;;;;;;6143960;23;20686;-79
2023/06/07 03:04:43;;;;;;;2.88;1.50;;;17.70;99.90;;;;;;6144722;23;20454;-79
2023/06/07 03:07:11;;;;;;;2.38;1.90;;;17.60;99.90;;;;;;6144831;23;20434;-78
2023/06/07 03:09:39;;;;;;;2.47;1.65;;;17.70;99.90;;;;;;6143777;23;20455;-79
2023/06/07 03:12:06;;;;;;;2.00;1.70;;;17.60;99.90;;;;;;6144423;23;20434;-78
2023/06/07 03:14:34;;;;;;;3.60;1.70;;;17.60;99.90;;;;;;6143713;23;20387;-78
2023/06/07 03:17:02;;;;;;;1.98;1.20;;;17.50;99.90;;;;;;6144735;23;20379;-79
2023/06/07 03:19:30;;;;;;;1.83;1.40;;;17.50;99.90;;;;;;6143272;23;20490;-79
2023/06/07 03:21:57;;;;;;;2.70;1.42;;;17.50;99.90;;;;;;6143786;23;20376;-78
2023/06/07 03:24:24;;;;;;;1.88;1.35;;;17.40;99.90;;;;;;6143193;23;20379;-78
2023/06/07 03:26:52;;;;;;;2.03;1.40;;;17.30;99.90;;;;;;6144583;23;20706;-80
2023/06/07 03:29:19;;;;;;;2.00;1.50;;;17.30;99.90;;;;;;6143073;23;20380;-79
2023/06/07 03:31:46;;;;;;;1.45;1.20;;;17.30;99.90;;;;;;6144448;23;20454;-79
2023/06/07 03:34:12;;;;;;;2.55;1.63;;;17.30;99.90;;;;;;6144396;23;20758;-78
2023/06/07 03:36:40;;;;;;;2.80;1.50;;;17.30;99.90;;;;;;6120872;23;20371;-78
2023/06/07 03:39:07;;;;;;;2.60;1.80;;;17.30;99.90;;;;;;6144264;23;20387;-78
2023/06/07 03:41:33;;;;;;;1.42;1.25;;;17.30;99.90;;;;;;6143249;23;20376;-79
2023/06/07 03:44:00;;;;;;;1.88;1.30;;;17.30;99.90;;;;;;6144588;23;20383;-78
2023/06/07 03:46:27;;;;;;;1.33;1.20;;;17.30;99.90;;;;;;6143581;23;21058;-78
2023/06/07 03:48:54;;;;;;;1.90;1.30;;;17.20;99.90;;;;;;6144544;23;20468;-79
2023/06/07 03:51:21;;;;;;;2.00;1.27;;;17.00;99.90;;;;;;6143525;23;20380;-79
2023/06/07 03:53:48;;;;;;;2.05;1.40;;;17.10;99.90;;;;;;6144314;23;20382;-79
2023/06/07 03:56:15;;;;;;;1.45;1.25;;;17.30;99.90;;;;;;6143609;23;20376;-78
2023/06/07 03:58:45;;;;;;;1.92;1.10;;;17.20;99.90;;;;;;6143664;23;20698;-79
2023/06/07 04:01:12;;;;;;;1.55;1.40;;;17.10;99.90;;;;;;6144227;23;20388;-79
2023/06/07 04:03:39;;;;;;;2.03;1.50;;;17.10;99.90;;;;;;6120568;23;20762;-78
2023/06/07 04:06:08;;;;;;;3.77;3.00;;;17.10;99.90;;;;;;6144432;23;20479;-79
2023/06/07 04:08:38;;;;;;;5.53;4.23;;;17.20;99.90;;;;;;6143087;23;20375;-78
2023/06/07 04:11:06;;;;;;;5.95;4.75;;;17.10;99.90;;;;;;6144618;23;20380;-79
2023/06/07 04:13:33;;;;;;;5.60;4.60;;;17.10;99.90;;;;;;6143847;23;20379;-78
2023/06/07 04:16:00;;;;;;;5.47;4.90;;;17.20;99.90;;;;;;6144056;23;20716;-79
2023/06/07 04:18:26;;;;;;;6.47;4.25;;;17.30;99.90;;;;;;6143501;23;20395;-79
2023/06/07 04:20:53;;;;;;;7.78;4.93;;;17.30;99.90;;;;;;6144044;23;20391;-79
2023/06/07 04:23:21;;;;;;;4.72;3.95;;;17.30;99.90;;;;;;6120420;23;20391;-80
2023/06/07 04:25:48;;;;;;;4.75;3.95;;;17.20;99.90;;;;;;6144437;23;20382;-79
2023/06/07 04:28:15;;;;;;;5.15;3.95;;;17.20;99.90;;;;;;6144046;23;20632;-78
2023/06/07 04:30:43;;;;;;;4.85;3.70;;;17.40;99.90;;;;;;6135387;23;20446;-79
2023/06/07 04:33:13;;;;;;;8.02;3.22;;;17.30;99.90;;;;;;6124395;23;20693;-78
2023/06/07 04:35:41;;;;;;;4.35;3.90;;;17.30;99.90;;;;;;6123675;23;20470;-79
2023/06/07 04:38:15;;;;;;;5.35;3.70;;;17.30;99.90;;;;;;6124455;23;20378;-79
2023/06/07 04:40:49;;;;;;;3.63;2.67;;;17.20;99.90;;;;;;6149242;23;20381;-79
2023/06/07 04:43:20;;;;;;;3.00;1.70;;;17.20;99.90;;;;;;6124590;23;20437;-78
2023/06/07 04:45:53;;;;;;;2.22;1.75;;;17.30;99.90;;;;;;6123552;23;20843;-78
2023/06/07 04:48:25;;;;;;;2.08;1.75;;;17.30;99.90;;;;;;6124145;23;20386;-78
2023/06/07 04:50:56;;;;;;;2.65;1.98;;;17.20;99.90;;;;;;6147679;23;20374;-79
2023/06/07 04:53:24;;;;;;;3.72;2.30;;;17.10;99.90;;;;;;6149742;23;20397;-79
2023/06/07 04:55:51;;;;;;;2.63;1.90;;;17.10;99.90;;;;;;6149095;23;20378;-78
2023/06/07 04:58:19;;;;;;;2.35;1.67;;;17.20;99.90;;;;;;6148310;23;20382;-78
2023/06/07 05:00:47;;;;;;;3.15;1.70;;;17.20;99.90;;;;;;6123577;23;20386;-79
2023/06/07 05:03:21;;;;;;;2.63;1.88;;;17.30;99.90;;;;;;6124026;23;20373;-78
2023/06/07 05:05:49;;;;;;;2.55;1.80;;;17.40;99.90;;;;;;6149303;23;20429;-79
2023/06/07 05:08:17;;;;;;;2.70;2.10;;;17.20;99.90;;;;;;6123963;23;20378;-78
2023/06/07 05:10:45;;;;;;;2.80;1.70;;;17.10;99.90;;;;;;6147308;23;20845;-79
2023/06/07 05:13:12;;;;;;;1.85;1.65;;;17.10;99.90;;;;;;6124093;23;20384;-78
2023/06/07 05:15:39;;;;;;;3.53;2.15;;;17.00;99.90;;;;;;6123469;23;20374;-79
2023/06/07 05:18:07;;;;;;;3.05;1.52;;;17.10;99.90;;;;;;6123474;23;20377;-79
2023/06/07 05:20:34;;;;;;;2.33;1.77;;;17.20;99.90;;;;;;6122584;23;20708;-79
2023/06/07 05:23:02;;;;;;;3.35;1.50;;;17.40;99.90;;;;;;6123854;23;20377;-78
2023/06/07 05:25:31;;;;;;;2.10;1.70;;;17.20;99.90;;;;;;6149430;23;20449;-78
2023/06/07 05:27:58;;;;;;;4.13;1.85;;;17.20;99.90;;;;;;6147503;23;20378;-78
2023/06/07 05:30:38;;;;;;;2.67;1.93;;;17.10;99.90;;;;;;6125455;23;20452;-79
2023/06/07 05:33:06;;;;;;;3.50;1.90;;;17.20;99.90;;;;;;6148148;23;20732;-78
2023/06/07 05:35:33;;;;;;;3.22;2.00;;;17.20;99.90;;;;;;6122723;23;20378;-80
2023/06/07 05:38:01;;;;;;;2.10;1.90;;;17.40;99.90;;;;;;6147642;23;20643;-78
2023/06/07 05:40:28;;;;;;;2.80;2.00;;;17.50;99.90;;;;;;6123111;23;20864;-78
2023/06/07 05:42:56;;;;;;;3.20;2.20;;;17.50;99.90;;;;;;6147282;23;20370;-78
2023/06/07 05:45:23;;;;;;;3.30;2.00;;;17.60;99.90;;;;;;6123878;23;20378;-78
2023/06/07 05:47:50;;;;;;;2.97;2.47;;;17.60;99.90;;;;;;6149121;23;20409;-78
2023/06/07 05:50:20;;;;;;;3.28;2.30;;;17.60;99.90;;;;;;6123314;23;20432;-78
2023/06/07 05:52:57;;;;;;;2.75;2.10;;;17.80;99.90;;;;;;6123090;23;20895;-78
2023/06/07 05:55:25;;;;;;;3.60;1.87;;;17.80;99.90;;;;;;6123686;23;20432;-78
2023/06/07 05:57:52;;;;;;;2.15;1.95;;;17.80;99.90;;;;;;6147127;23;20708;-79
2023/06/07 06:00:20;;;;;;;2.08;1.65;;;17.80;99.90;;;;;;6124045;23;20389;-78
2023/06/07 06:02:47;;;;;;;4.70;1.85;;;17.60;99.90;;;;;;6147448;23;20378;-78
2023/06/07 06:05:15;;;;;;;2.50;1.67;;;17.60;99.90;;;;;;6123825;23;20457;-78
2023/06/07 06:07:43;;;;;;;1.80;1.50;;;17.50;99.90;;;;;;6122815;23;20461;-79
2023/06/07 06:10:11;;;;;;;1.73;1.50;;;17.50;99.90;;;;;;6123732;23;20376;-79
2023/06/07 06:12:38;;;;;;;3.20;1.90;;;17.80;99.90;;;;;;6146776;23;20562;-80
2023/06/07 06:15:05;;;;;;;1.30;1.20;;;17.60;99.90;;;;;;6124029;23;20465;-79
2023/06/07 06:17:32;;;;;;;2.20;1.40;;;17.60;99.90;;;;;;6124258;23;20377;-78
2023/06/07 06:19:59;;;;;;;1.83;1.60;;;17.70;99.90;;;;;;6123739;23;20381;-79
2023/06/07 06:22:27;;;;;;;1.95;1.30;;;17.80;99.90;;;;;;6117444;23;20378;-78
2023/06/07 06:24:54;;;;;;;1.77;1.40;;;17.80;99.90;;;;;;6122191;23;20388;-79
2023/06/07 06:27:20;;;;;;;2.13;1.55;;;17.80;99.90;;;;;;6125687;23;20788;-78
2023/06/07 06:29:47;;;;;;;2.88;1.70;;;17.80;99.90;;;;;;6125107;23;20398;-79
2023/06/07 06:32:14;;;;;;;2.40;1.90;;;17.70;99.90;;;;;;6125546;23;20413;-78
2023/06/07 06:34:41;;;;;;;3.53;1.70;;;17.80;99.90;;;;;;6124957;23;20385;-80
2023/06/07 06:37:08;;;;;;;2.08;1.77;;;18.00;99.90;;;;;;6124850;23;20374;-78
2023/06/07 06:39:35;;;;;;;2.40;2.20;;;18.30;99.90;;;;;;6124364;23;20378;-78
2023/06/07 06:42:02;;;;;;;2.30;1.70;;;18.50;99.90;;;;;;6124091;23;20839;-79
2023/06/07 06:44:29;;;;;;;2.67;1.98;;;18.70;99.90;;;;;;6125779;23;20385;-79
2023/06/07 06:46:56;;;;;;;2.47;1.98;;;18.90;99.90;;;;;;6149868;23;20394;-79
2023/06/07 06:49:23;;;;;;;2.38;1.60;;;18.90;99.90;;;;;;6150024;23;20700;-78
2023/06/07 06:51:51;;;;;;;2.15;1.80;;;18.80;99.90;;;;;;6124662;23;21123;-78
2023/06/07 06:54:18;;;;;;;11.13;4.43;;;18.90;99.90;;;;;;6125720;23;20370;-79
2023/06/07 06:56:45;;;;;;;3.30;1.80;;;19.00;99.90;;;;;;6123938;23;20551;-79
2023/06/07 06:59:12;;;;;;;3.67;2.25;;;19.10;99.90;;;;;;6125166;23;20397;-78
2023/06/07 07:01:47;;;;;;;2.25;1.60;;;19.40;99.90;;;;;;6148446;23;20382;-78
2023/06/07 07:04:15;;;;;;;2.50;1.40;;;19.40;99.90;;;;;;6125647;23;20442;-79
2023/06/07 07:06:43;;;;;;;1.75;1.23;;;19.50;98.80;;;;;;6124009;23;20389;-79
2023/06/07 07:09:11;;;;;;;2.22;1.20;;;19.60;98.60;;;;;;6124849;23;20381;-78
2023/06/07 07:11:38;;;;;;;2.45;1.30;;;19.60;99.90;;;;;;6125304;23;20758;-79
2023/06/07 07:14:05;;;;;;;2.10;1.33;;;19.80;96.00;;;;;;6148489;23;20740;-79
2023/06/07 07:16:32;;;;;;;3.22;1.48;;;20.00;97.00;;;;;;6125764;23;20722;-78
2023/06/07 07:19:02;;;;;;;1.77;1.20;;;20.20;97.10;;;;;;6124847;23;20381;-79
2023/06/07 07:21:30;;;;;;;1.70;1.08;;;20.20;98.50;;;;;;6124977;23;20382;-78
2023/06/07 07:23:57;;;;;;;1.48;1.02;;;20.50;95.70;;;;;;6123515;23;20409;-79
2023/06/07 07:26:25;;;;;;;1.77;1.10;;;20.60;90.50;;;;;;6150676;23;20386;-78
2023/06/07 07:28:53;;;;;;;1.98;1.10;;;20.70;91.00;;;;;;6148392;23;20388;-79
2023/06/07 07:31:21;;;;;;;1.42;1.23;;;20.70;94.60;;;;;;6124777;23;20385;-78
2023/06/07 07:33:48;;;;;;;2.42;1.52;;;20.90;93.60;;;;;;6124393;23;20378;-79
2023/06/07 07:36:17;;;;;;;2.85;1.55;;;21.00;92.90;;;;;;6149772;23;20378;-79
2023/06/07 07:38:45;;;;;;;2.35;1.33;;;21.10;94.20;;;;;;6150005;23;20378;-79
2023/06/07 07:41:14;;;;;;;2.70;1.35;;;21.20;93.30;;;;;;6124824;23;20384;-79
2023/06/07 07:43:41;;;;;;;2.15;1.50;;;21.20;91.80;;;;;;6150914;23;20708;-78
2023/06/07 07:46:12;;;;;;;2.73;1.70;;;21.20;95.40;;;;;;6150340;23;20374;-79
2023/06/07 07:48:40;;;;;;;2.10;1.60;;;21.30;88.40;;;;;;6125179;23;20390;-79
2023/06/07 07:51:07;;;;;;;2.30;1.70;;;21.30;87.40;;;;;;6124037;23;20374;-78
2023/06/07 07:53:33;;;;;;;6.60;2.35;;;21.40;89.40;;;;;;6124562;23;20389;-79
2023/06/07 07:56:01;;;;;;;3.58;2.50;;;21.50;93.10;;;;;;6124644;23;20386;-79
2023/06/07 07:58:28;;;;;;;3.13;2.83;;;21.70;93.30;;;;;;6124718;23;20440;-78
2023/06/07 08:00:55;;;;;;;3.43;2.80;;;21.80;91.60;;;;;;6123919;23;21085;-80
2023/06/07 08:03:22;;;;;;;4.97;3.10;;;21.90;95.80;;;;;;6124874;23;20382;-79
2023/06/07 08:05:49;;;;;;;3.35;3.05;;;21.90;90.70;;;;;;6123946;23;20442;-79
2023/06/07 08:08:16;;;;;;;3.25;2.90;;;22.00;91.80;;;;;;6124979;23;20752;-79
2023/06/07 08:10:45;;;;;;;3.03;2.72;;;22.00;96.70;;;;;;6124881;23;20382;-79
2023/06/07 08:13:13;;;;;;;3.10;2.83;;;22.10;90.20;;;;;;6124536;23;20374;-79
2023/06/07 08:15:40;;;;;;;3.40;2.83;;;22.10;91.50;;;;;;6124906;23;20386;-79
2023/06/07 08:18:07;;;;;;;3.70;2.67;;;22.10;90.90;;;;;;6123663;23;20844;-79
2023/06/07 08:20:36;;;;;;;3.15;2.83;;;22.20;91.30;;;;;;6124552;23;20469;-79
2023/06/07 08:23:04;;;;;;;3.67;2.92;;;22.30;88.40;;;;;;6123791;23;20744;-79
2023/06/07 08:25:31;;;;;;;4.68;2.83;;;22.20;85.40;;;;;;6124944;23;20378;-79
2023/06/07 08:27:58;;;;;;;3.57;3.13;;;22.30;93.90;;;;;;6123841;23;20374;-79
2023/06/07 08:30:25;;;;;;;4.00;3.10;;;22.40;86.30;;;;;;6148737;23;20390;-79
2023/06/07 08:32:52;;;;;;;3.45;3.10;;;22.40;83.10;;;;;;6147936;23;20453;-79
2023/06/07 08:35:19;;;;;;;3.73;3.10;;;22.40;84.40;;;;;;6150108;23;20704;-78
2023/06/07 08:37:46;;;;;;;4.45;3.88;;;22.40;91.70;;;;;;6124251;23;20386;-79
2023/06/07 08:40:17;;;;;;;3.42;3.05;;;22.60;93.40;;;;;;6123845;23;20781;-79
2023/06/07 08:42:45;;;;;;;3.78;3.35;;;22.80;88.90;;;;;;6150410;23;20406;-80
2023/06/07 08:45:15;;;;;;;4.50;3.90;;;23.00;84.30;;;;;;6098994;23;20840;-79
2023/06/07 08:47:44;;;;;;;3.40;3.10;;;23.10;80.30;;;;;;6124113;23;20370;-79
2023/06/07 08:50:13;;;;;;;3.45;3.17;;;22.90;79.00;;;;;;6123989;23;20397;-79
2023/06/07 08:52:42;;;;;;;3.20;2.90;;;23.00;90.10;;;;;;6124150;23;20449;-79
2023/06/07 08:55:12;;;;;;;3.58;3.28;;;23.00;87.40;;;;;;6123418;23;20397;-80
2023/06/07 08:57:40;;;;;;;4.68;3.15;;;23.10;82.20;;;;;;6150458;23;20374;-80
2023/06/07 09:00:08;;;;;;;4.78;3.42;;;23.10;80.90;;;;;;6147336;23;20744;-79
2023/06/07 09:02:37;;;;;;;4.72;3.00;;;23.10;81.50;;;;;;6124162;23;20381;-80
2023/06/07 09:05:06;;;;;;;3.55;2.20;;;23.20;81.60;;;;;;6123305;23;20402;-80
2023/06/07 09:07:35;;;;;;;2.25;2.03;;;23.10;76.90;;;;;;6124904;23;20430;-80
2023/06/07 09:10:04;;;;;;;3.90;2.70;;;23.20;78.70;;;;;;6149096;23;20382;-80
2023/06/07 09:12:32;;;;;;;3.50;2.25;;;23.30;76.60;;;;;;6124088;23;20394;-80
2023/06/07 09:14:59;;;;;;;2.30;2.10;;;23.40;79.40;;;;;;6122934;23;20786;-80
2023/06/07 09:17:58;;;;;;;3.17;2.30;;;23.40;74.90;;;;;;6124161;23;20384;-80
2023/06/07 09:20:27;;;;;;;2.85;2.58;;;23.30;76.60;;;;;;6148140;23;20377;-80
2023/06/07 09:23:00;;;;;;;2.90;2.50;;;23.40;73.50;;;;;;6123983;23;20450;-80
2023/06/07 09:25:28;;;;;;;2.47;2.17;;;23.40;73.90;;;;;;6148844;23;20376;-80
2023/06/07 09:27:55;;;;;;;2.78;2.33;;;23.30;73.40;;;;;;6124140;23;20779;-80
2023/06/07 09:30:23;;;;;;;2.35;2.00;;;23.30;83.40;;;;;;6122999;23;20370;-80
2023/06/07 09:32:50;;;;;;;2.55;2.35;;;23.40;77.60;;;;;;6124331;23;20887;-80
2023/06/07 09:35:21;;;;;;;2.63;2.25;;;23.60;77.00;;;;;;6123042;23;20460;-80
2023/06/07 09:37:54;;;;;;;3.85;2.47;;;23.90;70.80;;;;;;6123715;23;20681;-81
2023/06/07 09:40:23;;;;;;;3.05;2.85;;;24.20;73.60;;;;;;6123407;23;20393;-80
2023/06/07 09:42:58;;;;;;;2.47;2.22;;;24.20;67.70;;;;;;6124165;23;20453;-80
2023/06/07 09:45:26;;;;;;;3.65;2.65;;;24.20;68.80;;;;;;6122906;23;20682;-80
2023/06/07 09:48:09;;;;;;;2.93;2.63;;;24.00;68.10;;;;;;6124222;23;20377;-80
2023/06/07 09:50:36;;;;;;;2.80;2.20;;;24.00;73.80;;;;;;6147419;23;20748;-79
2023/06/07 09:53:03;;;;;;;2.50;2.30;;;24.10;71.30;;;;;;6123787;23;20474;-80
2023/06/07 09:55:30;;;;;;;3.42;2.80;;;24.50;70.40;;;;;;6125118;23;20751;-80
2023/06/07 09:57:57;;;;;;;3.58;2.30;;;24.80;64.80;;;;;;6125858;23;20397;-79
2023/06/07 10:00:25;;;;;;;2.77;2.10;;;24.70;67.20;;;;;;6125025;23;20377;-81
2023/06/07 10:03:05;;;;;;;2.47;2.28;;;25.00;64.50;;;;;;6151372;23;20378;-80
2023/06/07 10:05:34;;;;;;;2.38;2.17;;;25.00;62.70;;;;;;6125063;23;20442;-80
2023/06/07 10:08:02;;;;;;;3.15;2.80;;;25.00;64.80;;;;;;6150138;23;20378;-80
2023/06/07 10:10:31;;;;;;;2.88;2.45;;;25.00;58.90;;;;;;6125421;23;20377;-80
2023/06/07 10:13:02;;;;;;;4.07;2.83;;;24.90;61.70;;;;;;6125821;23;20775;-80
2023/06/07 10:15:30;;;;;;;2.30;2.10;;;24.90;63.60;;;;;;6124885;23;20381;-80
2023/06/07 10:18:16;;;;;;;2.33;2.13;;;24.90;65.50;;;;;;6149506;23;20461;-80
2023/06/07 10:21:01;;;;;;;3.35;2.00;;;25.20;65.90;;;;;;6124421;23;20392;-80
2023/06/07 10:23:47;;;;;;;2.80;2.45;;;25.60;58.50;;;;;;6148984;23;20369;-80
2023/06/07 10:26:31;;;;;;;2.92;2.63;;;25.30;61.30;;;;;;6125704;23;20445;-81
2023/06/07 10:29:08;;;;;;;2.92;2.10;;;25.20;60.40;;;;;;6149080;23;20377;-80
2023/06/07 10:31:45;;;;;;;3.23;2.07;;;25.40;59.90;;;;;;6124806;23;20764;-80
2023/06/07 10:34:14;;;;;;;1.70;1.60;;;25.60;60.40;;;;;;6125678;23;20390;-81
2023/06/07 10:36:42;;;;;;;2.67;2.47;;;26.00;63.70;;;;;;6125068;23;20481;-81
2023/06/07 10:39:11;;;;;;;3.55;2.55;;;26.50;58.00;;;;;;6125686;23;20378;-81
2023/06/07 10:41:39;;;;;;;2.78;2.58;;;26.80;57.90;;;;;;6124096;23;20389;-80
2023/06/07 10:44:06;;;;;;;3.75;2.97;;;26.80;55.70;;;;;;6125502;23;20369;-80
2023/06/07 10:46:33;;;;;;;3.53;2.80;;;26.40;54.60;;;;;;6150207;23;20732;-80
2023/06/07 10:49:00;;;;;;;2.88;2.53;;;25.90;54.50;;;;;;6150794;23;20405;-80
2023/06/07 10:51:50;;;;;;;2.65;2.45;;;25.70;55.20;;;;;;6151140;23;20390;-80
2023/06/07 10:54:34;;;;;;;2.70;2.25;;;25.90;60.40;;;;;;6149161;23;20898;-80
2023/06/07 10:57:04;;;;;;;3.10;2.80;;;26.20;55.50;;;;;;6149964;23;20382;-81
2023/06/07 10:59:31;;;;;;;2.72;2.47;;;26.10;53.90;;;;;;6125360;23;20377;-80
2023/06/07 11:02:24;;;;;;;3.10;2.80;;;26.00;56.00;;;;;;6124475;23;20392;-80
2023/06/07 11:04:56;;;;;;;3.22;2.92;;;25.70;56.20;;;;;;6124880;23;20452;-81
2023/06/07 11:07:23;;;;;;;3.75;3.33;;;25.70;57.60;;;;;;6148768;23;20861;-80
2023/06/07 11:10:00;;;;;;;3.33;2.93;;;25.50;59.30;;;;;;6150110;23;20453;-82
2023/06/07 11:12:44;;;;;;;4.10;3.40;;;25.60;58.80;;;;;;6148615;23;21172;-81
2023/06/07 11:15:17;;;;;;;2.75;2.55;;;25.70;56.10;;;;;;6148772;23;20386;-81
2023/06/07 11:17:53;;;;;;;3.47;2.92;;;25.70;55.10;;;;;;6149395;23;20382;-81
2023/06/07 11:20:35;;;;;;;2.88;2.67;;;25.60;56.10;;;;;;6124618;23;20382;-80
2023/06/07 11:23:29;;;;;;;4.35;3.95;;;25.70;57.40;;;;;;6149665;23;20378;-81
2023/06/07 11:26:05;;;;;;;4.22;3.72;;;25.80;56.30;;;;;;6148635;23;20374;-80
2023/06/07 11:28:37;;;;;;;4.47;3.05;;;25.90;55.00;;;;;;6148463;23;20389;-80
2023/06/07 11:31:08;;;;;;;3.40;3.10;;;26.00;55.20;;;;;;6125475;23;20749;-84
2023/06/07 11:33:35;;;;;;;3.85;3.50;;;26.40;54.80;;;;;;6149938;23;20716;-83
2023/06/07 11:36:04;;;;;;;3.88;3.40;;;26.70;52.90;;;;;;6126284;23;20433;-82
2023/06/07 11:38:32;;;;;;;4.30;3.80;;;26.90;54.00;;;;;;6125223;23;20378;-81
2023/06/07 11:40:59;;;;;;;4.00;3.40;;;26.70;55.20;;;;;;6124542;23;20374;-80
2023/06/07 11:43:29;;;;;;;4.78;3.40;;;26.80;56.20;;;;;;6149211;23;20378;-81
2023/06/07 11:45:57;;;;;;;5.68;4.85;;;27.00;54.70;;;;;;6123976;23;20370;-80
2023/06/07 11:48:28;;;;;;;5.45;4.95;;;27.10;54.70;;;;;;6124981;23;20756;-80
2023/06/07 11:50:56;;;;;;;4.55;4.15;;;27.00;53.00;;;;;;6123685;23;20409;-80
2023/06/07 11:53:23;;;;;;;4.85;4.35;;;26.90;52.70;;;;;;6122526;23;20381;-81
2023/06/07 11:55:51;;;;;;;3.85;3.55;;;26.70;52.90;;;;;;6124140;23;20651;-80
2023/06/07 11:58:18;;;;;;;3.70;3.40;;;26.70;56.60;;;;;;6148982;23;20374;-81
2023/06/07 12:00:52;;;;;;;4.70;4.30;;;26.80;56.30;;;;;;6123580;23;20414;-81
2023/06/07 12:03:21;;;;;;;3.77;2.97;;;27.00;53.20;;;;;;6125071;23;20400;-80
2023/06/07 12:05:50;;;;;;;2.88;2.60;;;27.00;51.10;;;;;;6123454;23;20382;-80
2023/06/07 12:08:18;;;;;;;2.77;2.33;;;27.10;49.70;;;;;;6124837;23;20414;-80
2023/06/07 12:10:52;;;;;;;4.18;3.85;;;27.20;51.80;;;;;;6148943;23;20382;-80
2023/06/07 12:13:21;;;;;;;3.80;3.50;;;27.10;50.20;;;;;;6125278;23;20379;-80
2023/06/07 12:15:51;;;;;;;3.47;3.17;;;26.90;49.40;;;;;;6123898;23;20452;-80
2023/06/07 12:18:21;;;;;;;4.90;4.50;;;26.80;51.00;;;;;;6149164;23;20409;-81
2023/06/07 12:20:48;;;;;;;4.80;4.40;;;26.80;56.00;;;;;;6147933;23;20790;-80
2023/06/07 12:23:20;;;;;;;4.15;3.85;;;26.70;51.30;;;;;;6124810;23;20419;-80
2023/06/07 12:25:47;;;;;;;3.63;3.33;;;26.20;51.90;;;;;;6148575;23;20466;-80
2023/06/07 12:28:16;;;;;;;4.33;3.93;;;26.40;56.30;;;;;;6124514;23;20382;-80
2023/06/07 12:30:47;;;;;;;2.65;2.45;;;26.90;56.10;;;;;;6123242;23;20712;-81
2023/06/07 12:33:15;;;;;;;3.00;2.10;;;27.20;53.60;;;;;;6122989;23;20389;-81
2023/06/07 12:35:48;;;;;;;2.10;1.80;;;27.40;52.10;;;;;;6123349;23;20382;-79
2023/06/07 12:38:15;;;;;;;2.20;2.00;;;27.70;50.70;;;;;;6149088;23;20389;-80
2023/06/07 12:40:42;;;;;;;1.98;1.65;;;28.00;50.80;;;;;;6122551;23;20708;-79
2023/06/07 12:43:09;;;;;;;2.90;2.70;;;28.20;48.90;;;;;;6124511;23;20373;-80
2023/06/07 12:45:36;;;;;;;2.20;2.00;;;28.60;47.20;;;;;;6149784;23;20378;-80
2023/06/07 12:48:04;;;;;;;2.70;2.40;;;28.80;47.10;;;;;;6124085;23;20374;-80
2023/06/07 12:50:31;;;;;;;3.25;2.40;;;28.80;48.40;;;;;;6149032;23;20377;-79
2023/06/07 12:52:59;;;;;;;2.70;2.45;;;29.00;48.80;;;;;;6123327;23;20378;-80
2023/06/07 12:55:26;;;;;;;3.40;3.10;;;29.20;47.80;;;;;;6123299;23;20850;-82
2023/06/07 12:57:53;;;;;;;3.37;3.13;;;29.20;46.60;;;;;;6123795;23;20910;-81
2023/06/07 13:00:20;;;;;;;3.70;3.40;;;28.50;47.40;;;;;;6148031;23;20381;-81
2023/06/07 13:02:47;;;;;;;3.40;3.10;;;28.20;49.10;;;;;;6123643;23;20378;-79
2023/06/07 13:05:15;;;;;;;3.15;2.92;;;27.90;50.50;;;;;;6148760;23;20374;-82
2023/06/07 13:07:42;;;;;;;4.05;2.97;;;28.10;54.20;;;;;;6123732;23;20442;-81
2023/06/07 13:10:10;;;;;;;3.33;2.65;;;28.20;49.60;;;;;;6149079;23;20369;-79
2023/06/07 13:12:38;;;;;;;2.83;2.63;;;27.80;49.70;;;;;;6124597;23;20378;-80
2023/06/07 13:15:06;;;;;;;2.20;2.00;;;27.70;49.40;;;;;;6124102;23;20413;-81
2023/06/07 13:17:33;;;;;;;3.30;2.72;;;27.80;50.00;;;;;;6123963;23;20386;-80
2023/06/07 13:20:01;;;;;;;2.75;2.40;;;28.30;48.40;;;;;;6123828;23;20371;-80
2023/06/07 13:22:31;;;;;;;3.83;3.38;;;28.40;48.70;;;;;;6123920;23;20790;-80
2023/06/07 13:24:58;;;;;;;3.88;3.58;;;28.20;47.50;;;;;;6123403;23;20378;-80
2023/06/07 13:27:26;;;;;;;3.40;3.10;;;27.80;49.10;;;;;;6149521;23;20389;-80
2023/06/07 13:29:55;;;;;;;2.95;2.67;;;27.90;49.50;;;;;;6123316;23;20378;-80
2023/06/07 13:32:22;;;;;;;2.65;2.45;;;28.00;48.90;;;;;;6123114;23;20922;-81
2023/06/07 13:34:50;;;;;;;3.33;2.65;;;28.20;48.20;;;;;;6123757;23;20466;-79
2023/06/07 13:37:17;;;;;;;2.65;2.45;;;28.00;48.80;;;;;;6124188;23;20470;-80
2023/06/07 13:39:43;;;;;;;2.85;2.65;;;28.10;50.10;;;;;;6124083;23;20465;-79
2023/06/07 13:42:11;;;;;;;2.97;2.33;;;28.50;49.50;;;;;;6148287;23;20389;-80
2023/06/07 13:44:39;;;;;;;3.38;3.08;;;28.60;49.10;;;;;;6124128;23;20429;-79
2023/06/07 13:47:07;;;;;;;3.10;2.80;;;28.40;46.10;;;;;;6122890;23;20879;-80
2023/06/07 13:49:35;;;;;;;3.20;2.70;;;28.20;47.70;;;;;;6124499;23;20432;-79
2023/06/07 13:52:02;;;;;;;2.97;2.75;;;28.00;47.90;;;;;;6147286;23;20374;-79
2023/06/07 13:54:31;;;;;;;3.10;2.80;;;27.50;47.00;;;;;;6148521;23;20756;-79
2023/06/07 13:56:59;;;;;;;2.90;2.25;;;27.30;50.00;;;;;;6123162;23;20385;-80
2023/06/07 13:59:28;;;;;;;2.50;2.20;;;27.30;50.20;;;;;;6123936;23;20378;-80
2023/06/07 14:01:58;;;;;;;3.00;2.40;;;27.30;50.00;;;;;;6147137;23;20482;-80
2023/06/07 14:04:26;;;;;;;3.50;2.55;;;27.10;48.30;;;;;;6124031;23;20712;-79
2023/06/07 14:06:54;;;;;;;2.72;2.20;;;26.70;48.50;;;;;;6149297;23;20398;-80
2023/06/07 14:09:22;;;;;;;3.42;2.53;;;26.40;51.50;;;;;;6124196;23;20374;-80
2023/06/07 14:11:49;;;;;;;2.42;2.22;;;26.20;50.90;;;;;;6123303;23;20767;-78
2023/06/07 14:14:16;;;;;;;2.80;2.45;;;26.10;51.50;;;;;;6123807;23;20378;-80
2023/06/07 14:16:43;;;;;;;2.58;2.38;;;26.00;50.60;;;;;;6124146;23;20752;-80
2023/06/07 14:19:10;;;;;;;2.10;1.75;;;26.00;51.90;;;;;;6149055;23;20374;-80
2023/06/07 14:21:38;;;;;;;3.60;2.00;;;26.00;51.90;;;;;;6149754;23;20405;-79
2023/06/07 14:24:05;;;;;;;2.40;2.10;;;25.80;51.60;;;;;;6123252;23;20394;-79